Time;durP1;ratioP1;P1;durP2;ratioP2;P2;SDS_P1;SDS_P2;PMS_P1;PMS_P2;Temp;Humidity;BMP_temperature;BMP_pressure;BME280_temperature;BME280_humidity;BME280_pressure;Samples;Min_cycle;Max_cycle;Signal;HPM_P1;HPM_P2
2023/05/14 00:01:06;;;;;;;20.02;18.42;;;13.00;99.90;;;;;;5031123;28;20799;-70
2023/05/14 00:03:33;;;;;;;19.50;17.90;;;13.00;99.90;;;;;;5031960;28;20456;-70
2023/05/14 00:06:00;;;;;;;19.05;17.55;;;13.00;99.90;;;;;;5031245;28;20762;-70
2023/05/14 00:08:28;;;;;;;19.55;17.90;;;13.00;99.90;;;;;;5029631;28;20457;-70
2023/05/14 00:10:55;;;;;;;19.40;17.80;;;13.00;99.90;;;;;;5028083;28;20776;-70
2023/05/14 00:13:21;;;;;;;19.70;17.80;;;12.90;99.90;;;;;;5032554;28;20513;-73
2023/05/14 00:15:48;;;;;;;18.50;16.70;;;12.90;99.90;;;;;;5028934;28;20952;-70
2023/05/14 00:18:15;;;;;;;18.15;16.55;;;12.90;99.90;;;;;;5028606;28;20434;-70
2023/05/14 00:20:41;;;;;;;18.20;16.70;;;12.90;99.90;;;;;;5030812;28;20431;-70
2023/05/14 00:23:08;;;;;;;18.02;16.42;;;12.90;99.90;;;;;;5053528;28;20409;-69
2023/05/14 00:25:36;;;;;;;16.83;15.52;;;12.80;99.90;;;;;;5054055;28;20422;-70
2023/05/14 00:28:03;;;;;;;17.50;16.00;;;12.80;99.90;;;;;;5046404;28;20441;-70
2023/05/14 00:30:30;;;;;;;17.52;16.23;;;12.80;99.90;;;;;;5031678;28;20696;-70
2023/05/14 00:32:57;;;;;;;16.70;15.20;;;12.80;99.90;;;;;;5028603;28;20439;-70
2023/05/14 00:35:23;;;;;;;17.10;15.70;;;12.70;99.90;;;;;;5030887;28;20431;-70
2023/05/14 00:37:50;;;;;;;17.30;15.90;;;12.60;99.90;;;;;;5031170;28;20435;-71
2023/05/14 00:40:17;;;;;;;18.42;16.98;;;12.50;99.90;;;;;;5028308;28;20441;-70
2023/05/14 00:42:45;;;;;;;18.23;16.75;;;12.50;99.90;;;;;;5027598;28;20426;-70
2023/05/14 00:45:12;;;;;;;17.75;16.25;;;12.50;99.90;;;;;;5030861;28;20438;-70
2023/05/14 00:47:39;;;;;;;16.38;15.02;;;12.50;99.90;;;;;;5024265;28;20953;-70
2023/05/14 00:50:06;;;;;;;16.27;15.07;;;12.50;99.90;;;;;;5029824;28;20513;-70
2023/05/14 00:52:33;;;;;;;16.57;15.17;;;12.50;99.90;;;;;;5031281;28;20435;-70
2023/05/14 00:55:02;;;;;;;15.60;14.30;;;12.40;99.90;;;;;;5024885;28;20434;-70
2023/05/14 00:57:29;;;;;;;18.15;16.65;;;12.30;99.90;;;;;;5029539;28;20436;-70
2023/05/14 00:59:58;;;;;;;18.48;17.08;;;12.20;99.90;;;;;;5037723;28;20415;-70
2023/05/14 01:02:25;;;;;;;19.23;17.52;;;12.20;99.90;;;;;;5034580;28;20558;-69
2023/05/14 01:04:52;;;;;;;18.58;16.98;;;12.10;99.90;;;;;;5031344;28;20779;-69
2023/05/14 01:07:30;;;;;;;19.10;17.50;;;12.10;99.90;;;;;;5033368;28;20436;-70
2023/05/14 01:10:02;;;;;;;18.20;16.80;;;12.00;99.90;;;;;;5029619;28;20918;-70
2023/05/14 01:12:35;;;;;;;19.10;17.60;;;12.00;99.90;;;;;;5031176;28;20991;-69
2023/05/14 01:15:08;;;;;;;18.02;16.60;;;12.00;99.90;;;;;;5033252;28;20423;-71
2023/05/14 01:17:40;;;;;;;18.15;16.75;;;12.10;99.90;;;;;;5030287;28;20879;-70
2023/05/14 01:20:09;;;;;;;17.05;15.63;;;12.10;99.90;;;;;;5030564;28;20817;-70
2023/05/14 01:22:37;;;;;;;17.50;16.20;;;12.10;99.90;;;;;;5029416;28;20514;-70
2023/05/14 01:25:04;;;;;;;17.30;15.90;;;12.10;99.90;;;;;;5039006;28;20420;-70
2023/05/14 01:27:38;;;;;;;18.70;17.10;;;12.10;99.90;;;;;;5028791;28;20434;-69
2023/05/14 01:30:13;;;;;;;19.90;18.20;;;12.10;99.90;;;;;;5028263;28;20809;-70
2023/05/14 01:32:41;;;;;;;19.75;18.17;;;12.10;99.90;;;;;;5026977;28;20453;-69
2023/05/14 01:35:10;;;;;;;17.10;15.70;;;12.10;99.90;;;;;;5028936;28;20453;-70
2023/05/14 01:37:39;;;;;;;17.90;16.40;;;12.10;99.90;;;;;;5029709;28;20963;-70
2023/05/14 01:40:08;;;;;;;17.47;16.07;;;12.10;99.90;;;;;;5029036;28;20498;-70
2023/05/14 01:42:35;;;;;;;18.08;16.58;;;12.10;99.90;;;;;;5026014;28;20515;-70
2023/05/14 01:45:02;;;;;;;18.60;17.20;;;12.00;99.90;;;;;;5030345;28;20466;-70
2023/05/14 01:47:29;;;;;;;18.10;16.70;;;12.00;99.90;;;;;;5028203;28;20526;-69
2023/05/14 01:49:56;;;;;;;16.10;14.90;;;12.00;99.90;;;;;;5028735;28;20423;-70
2023/05/14 01:52:23;;;;;;;17.00;15.80;;;12.00;99.90;;;;;;5027412;28;20443;-70
2023/05/14 01:54:51;;;;;;;17.70;16.30;;;12.00;99.90;;;;;;5036204;28;20901;-69
2023/05/14 01:57:18;;;;;;;17.20;15.80;;;11.90;99.90;;;;;;5024832;28;20434;-69
2023/05/14 01:59:44;;;;;;;17.58;16.17;;;11.90;99.90;;;;;;5028178;28;20435;-70
2023/05/14 02:02:11;;;;;;;17.50;16.10;;;11.90;99.90;;;;;;5026213;28;20509;-70
2023/05/14 02:04:38;;;;;;;17.08;15.77;;;11.90;99.90;;;;;;5034943;28;20434;-70
2023/05/14 02:07:05;;;;;;;17.50;16.20;;;11.90;99.90;;;;;;5024169;28;20431;-70
2023/05/14 02:09:31;;;;;;;18.30;16.80;;;11.90;99.90;;;;;;5030368;28;20431;-70
2023/05/14 02:12:00;;;;;;;17.30;16.00;;;11.90;99.90;;;;;;5028684;28;20434;-70
2023/05/14 02:14:26;;;;;;;16.98;15.57;;;11.80;99.90;;;;;;5028493;28;20429;-70
2023/05/14 02:16:53;;;;;;;16.80;15.60;;;11.80;99.90;;;;;;5027655;28;20431;-71
2023/05/14 02:19:20;;;;;;;17.88;16.38;;;11.80;99.90;;;;;;5031288;28;20581;-72
2023/05/14 02:21:48;;;;;;;17.80;16.30;;;11.80;99.90;;;;;;5038262;28;20430;-70
2023/05/14 02:24:14;;;;;;;17.20;15.80;;;11.70;99.90;;;;;;5028372;28;20441;-70
2023/05/14 02:26:41;;;;;;;16.85;15.55;;;11.70;99.90;;;;;;5026652;28;20433;-70
2023/05/14 02:29:10;;;;;;;16.65;15.45;;;11.70;99.90;;;;;;5032382;28;20492;-69
2023/05/14 02:31:37;;;;;;;16.60;15.40;;;11.70;99.90;;;;;;5028031;28;20522;-69
2023/05/14 02:34:05;;;;;;;16.63;15.33;;;11.70;99.90;;;;;;5029762;28;20419;-70
2023/05/14 02:36:32;;;;;;;15.10;14.00;;;11.60;99.90;;;;;;5039505;28;20461;-70
2023/05/14 02:38:59;;;;;;;16.00;14.80;;;11.60;99.90;;;;;;5033888;28;20468;-70
2023/05/14 02:41:26;;;;;;;16.42;14.93;;;11.50;99.90;;;;;;5027098;28;20431;-70
2023/05/14 02:43:53;;;;;;;15.80;14.60;;;11.50;99.90;;;;;;5027707;28;20415;-70
2023/05/14 02:46:21;;;;;;;15.48;14.38;;;11.40;99.90;;;;;;5025163;28;20453;-70
2023/05/14 02:48:48;;;;;;;15.73;14.52;;;11.40;99.90;;;;;;5033957;28;20814;-70
2023/05/14 02:51:15;;;;;;;15.70;14.50;;;11.40;99.90;;;;;;5029589;28;20464;-69
2023/05/14 02:53:42;;;;;;;16.08;14.88;;;11.30;99.90;;;;;;5027851;28;20415;-70
2023/05/14 02:56:09;;;;;;;15.30;14.10;;;11.40;99.90;;;;;;5024317;28;20443;-70
2023/05/14 02:58:35;;;;;;;15.80;14.60;;;11.30;99.90;;;;;;5025467;28;20916;-70
2023/05/14 03:01:02;;;;;;;15.40;14.20;;;11.30;99.90;;;;;;5023034;28;20438;-69
2023/05/14 03:03:31;;;;;;;15.00;13.90;;;11.30;99.90;;;;;;5027273;28;20438;-69
2023/05/14 03:05:58;;;;;;;14.35;13.25;;;11.20;99.90;;;;;;5026679;28;20439;-69
2023/05/14 03:08:24;;;;;;;14.30;13.15;;;11.20;99.90;;;;;;5025312;28;20434;-71
2023/05/14 03:10:51;;;;;;;14.75;13.60;;;11.20;99.90;;;;;;5022931;28;20461;-71
2023/05/14 03:13:19;;;;;;;14.53;13.13;;;11.10;99.90;;;;;;5025074;28;20464;-69
2023/05/14 03:15:46;;;;;;;14.10;13.10;;;11.10;99.90;;;;;;5021535;28;20804;-70
2023/05/14 03:18:13;;;;;;;13.70;12.60;;;11.10;99.90;;;;;;5029025;28;20510;-70
2023/05/14 03:20:41;;;;;;;14.25;13.15;;;11.10;99.90;;;;;;5026372;28;20431;-70
2023/05/14 03:23:08;;;;;;;14.32;13.23;;;11.00;99.90;;;;;;5027241;28;20435;-70
2023/05/14 03:25:35;;;;;;;14.50;13.50;;;11.00;99.90;;;;;;5020689;28;20518;-70
2023/05/14 03:28:01;;;;;;;14.60;13.60;;;11.00;99.90;;;;;;4985205;22;1781511;-71
2023/05/14 03:30:28;;;;;;;13.68;12.68;;;11.00;99.90;;;;;;5040515;28;20440;-70
2023/05/14 03:32:55;;;;;;;13.50;12.50;;;11.00;99.90;;;;;;5043618;28;20433;-71
2023/05/14 03:35:22;;;;;;;13.95;12.95;;;10.90;99.90;;;;;;5039530;28;20438;-70
2023/05/14 03:37:51;;;;;;;13.93;12.93;;;10.90;99.90;;;;;;5039771;28;20796;-71
2023/05/14 03:40:18;;;;;;;14.13;12.82;;;10.90;99.90;;;;;;5039388;28;20440;-70
2023/05/14 03:42:45;;;;;;;13.90;12.70;;;10.90;99.90;;;;;;5033984;28;21024;-71
2023/05/14 03:45:12;;;;;;;14.05;12.95;;;10.90;99.90;;;;;;5037752;28;20444;-70
2023/05/14 03:47:38;;;;;;;14.20;13.00;;;10.80;99.90;;;;;;5043683;28;20444;-70
2023/05/14 03:50:06;;;;;;;14.30;13.30;;;10.80;99.90;;;;;;5038287;28;20424;-71
2023/05/14 03:52:33;;;;;;;15.20;14.10;;;10.80;99.90;;;;;;5036337;28;21013;-71
2023/05/14 03:55:01;;;;;;;14.68;13.50;;;10.80;99.90;;;;;;5040403;28;20532;-70
2023/05/14 03:57:28;;;;;;;14.65;13.45;;;10.70;99.90;;;;;;5037057;28;20791;-71
2023/05/14 03:59:55;;;;;;;14.52;13.40;;;10.80;99.90;;;;;;5029207;28;20422;-70
2023/05/14 04:02:21;;;;;;;14.60;13.50;;;10.70;99.90;;;;;;5030486;28;20440;-70
2023/05/14 04:04:48;;;;;;;14.82;13.73;;;10.70;99.90;;;;;;5034825;28;20437;-70
2023/05/14 04:07:15;;;;;;;15.73;14.52;;;10.70;99.90;;;;;;5037306;28;20463;-71
2023/05/14 04:09:41;;;;;;;14.60;13.43;;;10.70;99.90;;;;;;5040788;28;20709;-71
2023/05/14 04:12:10;;;;;;;15.13;13.93;;;10.70;99.90;;;;;;5039845;28;20441;-71
2023/05/14 04:14:36;;;;;;;15.43;14.23;;;10.70;99.90;;;;;;5040078;28;20977;-71
2023/05/14 04:17:04;;;;;;;15.40;14.20;;;10.70;99.90;;;;;;5040888;28;20429;-71
2023/05/14 04:19:30;;;;;;;16.27;14.88;;;10.70;99.90;;;;;;5040670;28;20433;-71
2023/05/14 04:21:57;;;;;;;15.50;14.27;;;10.70;99.90;;;;;;5041842;28;20437;-71
2023/05/14 04:24:24;;;;;;;16.20;15.00;;;10.70;99.90;;;;;;5035729;28;20452;-70
2023/05/14 04:26:50;;;;;;;15.00;13.88;;;10.60;99.90;;;;;;5033065;28;20903;-71
2023/05/14 04:29:18;;;;;;;15.35;14.25;;;10.60;99.90;;;;;;5031406;28;20436;-70
2023/05/14 04:31:45;;;;;;;15.98;14.57;;;10.60;99.90;;;;;;5035987;28;20421;-71
2023/05/14 04:34:12;;;;;;;15.27;14.18;;;10.60;99.90;;;;;;5038436;28;20444;-71
2023/05/14 04:36:39;;;;;;;15.77;14.48;;;10.60;99.90;;;;;;5039415;28;20435;-71
2023/05/14 04:39:05;;;;;;;15.63;14.43;;;10.70;99.90;;;;;;5042290;28;20467;-71
2023/05/14 04:41:32;;;;;;;14.90;13.80;;;10.70;99.90;;;;;;5039617;28;20464;-71
2023/05/14 04:44:01;;;;;;;16.13;14.93;;;10.60;99.90;;;;;;5042978;28;20701;-71
2023/05/14 04:46:29;;;;;;;15.43;14.23;;;10.70;99.90;;;;;;5045124;28;20548;-71
2023/05/14 04:48:56;;;;;;;16.40;15.10;;;10.70;99.90;;;;;;5045164;28;20437;-71
2023/05/14 04:51:23;;;;;;;16.00;14.60;;;10.70;99.90;;;;;;5047270;28;20432;-71
2023/05/14 04:53:49;;;;;;;16.13;14.70;;;10.70;99.90;;;;;;5043765;28;20520;-71
2023/05/14 04:56:16;;;;;;;14.77;13.63;;;10.70;99.90;;;;;;5044178;28;20441;-71
2023/05/14 04:58:43;;;;;;;14.75;13.65;;;10.70;99.90;;;;;;5048097;28;20450;-71
2023/05/14 05:01:10;;;;;;;15.17;13.97;;;10.70;99.90;;;;;;5038761;28;20886;-71
2023/05/14 05:03:38;;;;;;;14.97;13.87;;;10.70;99.90;;;;;;5045320;28;20479;-71
2023/05/14 05:06:05;;;;;;;15.15;13.90;;;10.80;99.90;;;;;;5049112;28;20441;-71
2023/05/14 05:08:31;;;;;;;15.77;14.48;;;10.70;99.90;;;;;;5040503;28;20409;-71
2023/05/14 05:10:58;;;;;;;16.08;14.77;;;10.80;99.90;;;;;;5042067;28;20460;-71
2023/05/14 05:13:25;;;;;;;15.43;14.23;;;10.80;99.90;;;;;;5046848;28;20459;-70
2023/05/14 05:15:51;;;;;;;15.88;14.60;;;10.80;99.90;;;;;;5039998;28;20460;-70
2023/05/14 05:18:18;;;;;;;15.93;14.73;;;10.80;99.90;;;;;;5045285;28;20445;-70
2023/05/14 05:20:46;;;;;;;16.20;14.90;;;10.80;99.90;;;;;;5039960;28;20888;-70
2023/05/14 05:23:13;;;;;;;15.88;14.57;;;10.90;99.90;;;;;;5044078;28;20993;-70
2023/05/14 05:25:40;;;;;;;15.82;14.63;;;10.90;99.90;;;;;;5040374;28;21676;-70
2023/05/14 05:28:07;;;;;;;16.10;14.70;;;10.90;99.90;;;;;;5043034;28;20421;-70
2023/05/14 05:30:33;;;;;;;15.85;14.52;;;10.90;99.90;;;;;;5041077;28;20902;-70
2023/05/14 05:33:00;;;;;;;17.38;15.98;;;10.90;99.90;;;;;;5043638;28;20427;-70
2023/05/14 05:35:27;;;;;;;16.60;15.40;;;10.90;99.90;;;;;;5042177;28;20729;-70
2023/05/14 05:37:55;;;;;;;17.23;15.93;;;10.90;99.90;;;;;;5040724;28;20436;-70
2023/05/14 05:40:22;;;;;;;16.92;15.63;;;10.90;99.90;;;;;;5040496;28;20425;-70
2023/05/14 05:42:48;;;;;;;17.38;16.08;;;10.90;99.90;;;;;;5033923;28;20480;-70
2023/05/14 05:45:15;;;;;;;17.60;16.30;;;10.90;99.90;;;;;;5039677;28;20448;-71
2023/05/14 05:47:42;;;;;;;18.00;16.50;;;11.00;99.90;;;;;;5042010;28;20902;-71
2023/05/14 05:50:09;;;;;;;18.38;16.98;;;11.00;99.90;;;;;;5036993;28;20417;-71
2023/05/14 05:52:36;;;;;;;19.10;17.65;;;11.00;99.90;;;;;;5042491;28;20433;-71
2023/05/14 05:55:05;;;;;;;18.63;17.20;;;11.10;99.90;;;;;;5031044;28;20442;-72
2023/05/14 05:57:32;;;;;;;18.60;17.30;;;11.20;99.90;;;;;;5040137;28;20924;-71
2023/05/14 05:59:59;;;;;;;19.17;17.48;;;11.30;99.90;;;;;;5036534;28;20441;-71
2023/05/14 06:02:25;;;;;;;18.88;17.48;;;11.30;99.90;;;;;;5038668;28;20453;-71
2023/05/14 06:04:52;;;;;;;19.63;17.93;;;11.40;99.90;;;;;;5039048;28;20852;-72
2023/05/14 06:07:19;;;;;;;18.40;16.90;;;11.40;99.90;;;;;;5035455;28;20603;-71
2023/05/14 06:09:46;;;;;;;18.90;17.50;;;11.50;99.90;;;;;;5036666;28;20928;-71
2023/05/14 06:12:14;;;;;;;18.33;16.90;;;11.50;99.90;;;;;;5036369;28;20442;-71
2023/05/14 06:14:40;;;;;;;18.63;17.23;;;11.60;99.90;;;;;;5040926;28;20425;-70
2023/05/14 06:17:08;;;;;;;18.70;17.20;;;11.60;99.90;;;;;;5033001;28;20457;-65
2023/05/14 06:19:34;;;;;;;16.40;15.10;;;11.70;99.90;;;;;;5037425;28;20947;-65
2023/05/14 06:22:01;;;;;;;16.70;15.40;;;11.80;99.90;;;;;;5038378;28;20451;-64
2023/05/14 06:24:28;;;;;;;17.52;16.30;;;11.80;99.90;;;;;;5036648;28;20526;-65
2023/05/14 06:26:55;;;;;;;18.50;17.00;;;11.90;99.90;;;;;;5033994;28;20485;-66
2023/05/14 06:29:23;;;;;;;18.42;17.02;;;12.00;99.90;;;;;;5038342;28;20430;-66
2023/05/14 06:31:50;;;;;;;17.17;15.95;;;12.10;99.90;;;;;;5038324;28;20437;-66
2023/05/14 06:34:16;;;;;;;17.67;16.38;;;12.10;99.90;;;;;;5041872;28;20444;-67
2023/05/14 06:36:43;;;;;;;17.55;16.15;;;12.20;99.90;;;;;;5034580;28;20558;-67
2023/05/14 06:39:11;;;;;;;18.70;17.10;;;12.20;99.90;;;;;;5037889;28;20455;-67
2023/05/14 06:41:38;;;;;;;18.02;16.63;;;12.30;99.90;;;;;;5043515;28;20413;-67
2023/05/14 06:44:05;;;;;;;18.67;17.17;;;12.50;99.90;;;;;;5039897;28;20793;-67
2023/05/14 06:46:33;;;;;;;17.45;16.05;;;12.60;99.90;;;;;;5037128;28;20919;-63
2023/05/14 06:49:00;;;;;;;17.38;15.98;;;12.70;99.90;;;;;;5036001;28;20423;-64
2023/05/14 06:51:26;;;;;;;17.48;16.17;;;12.80;99.90;;;;;;5034721;28;20441;-64
2023/05/14 06:53:54;;;;;;;17.98;16.48;;;13.00;99.90;;;;;;5037357;28;20464;-66
2023/05/14 06:56:21;;;;;;;16.83;15.63;;;13.10;99.90;;;;;;5039749;28;20436;-67
2023/05/14 06:58:48;;;;;;;16.73;15.32;;;13.20;99.90;;;;;;5028796;28;20432;-67
2023/05/14 07:01:15;;;;;;;16.52;15.32;;;13.30;99.90;;;;;;5039711;28;20436;-67
2023/05/14 07:03:44;;;;;;;17.75;16.25;;;13.50;99.90;;;;;;5043033;28;20521;-67
2023/05/14 07:06:10;;;;;;;18.55;17.05;;;13.60;99.90;;;;;;5042801;28;20425;-68
2023/05/14 07:08:37;;;;;;;18.70;17.20;;;13.70;99.50;;;;;;5024973;28;20916;-70
2023/05/14 07:11:04;;;;;;;18.63;17.20;;;13.80;99.10;;;;;;5039870;28;20437;-71
2023/05/14 07:13:31;;;;;;;17.90;16.58;;;14.00;98.60;;;;;;5039056;28;20440;-71
2023/05/14 07:15:57;;;;;;;17.90;16.60;;;14.10;97.80;;;;;;5035863;28;20806;-70
2023/05/14 07:18:24;;;;;;;16.27;15.10;;;14.20;97.20;;;;;;5038870;28;20437;-69
2023/05/14 07:20:52;;;;;;;14.93;13.80;;;14.40;96.90;;;;;;5042269;28;20498;-69
2023/05/14 07:23:19;;;;;;;13.95;12.85;;;14.50;95.90;;;;;;5024231;28;20438;-68
2023/05/14 07:25:45;;;;;;;14.02;12.93;;;14.70;95.20;;;;;;5046604;28;20447;-67
2023/05/14 07:28:12;;;;;;;13.35;12.25;;;14.80;94.50;;;;;;5039036;28;20454;-72
2023/05/14 07:30:39;;;;;;;13.43;12.32;;;15.10;93.90;;;;;;5040811;28;20757;-68
2023/05/14 07:33:06;;;;;;;12.15;11.05;;;15.20;93.10;;;;;;5039810;28;20441;-70
2023/05/14 07:35:32;;;;;;;16.92;15.63;;;15.40;92.80;;;;;;5029714;28;20519;-73
2023/05/14 07:38:00;;;;;;;11.40;10.50;;;15.60;91.90;;;;;;5033609;28;20441;-69
2023/05/14 07:40:27;;;;;;;11.90;10.90;;;15.80;90.50;;;;;;5037594;28;20765;-69
2023/05/14 07:42:54;;;;;;;11.50;10.43;;;16.10;90.30;;;;;;5033350;28;20803;-70
2023/05/14 07:45:21;;;;;;;11.27;10.27;;;16.20;89.10;;;;;;5033226;28;20432;-70
2023/05/14 07:47:50;;;;;;;10.70;9.90;;;16.30;86.40;;;;;;5036811;28;20419;-70
2023/05/14 07:50:17;;;;;;;9.50;8.70;;;16.50;85.10;;;;;;5035960;28;20783;-71
2023/05/14 07:52:44;;;;;;;10.30;9.50;;;16.70;84.70;;;;;;5036286;28;20471;-69
2023/05/14 07:55:12;;;;;;;8.90;8.20;;;16.80;83.90;;;;;;5034087;28;20489;-69
2023/05/14 07:57:39;;;;;;;8.30;7.70;;;16.90;81.40;;;;;;5040708;28;20425;-69
2023/05/14 08:00:07;;;;;;;8.50;7.80;;;17.00;79.80;;;;;;5034696;28;20455;-69
2023/05/14 08:02:34;;;;;;;9.30;8.50;;;17.20;78.20;;;;;;5037540;28;20453;-70
2023/05/14 08:05:01;;;;;;;8.63;7.90;;;17.30;77.90;;;;;;5044103;28;20667;-69
2023/05/14 08:07:28;;;;;;;8.60;7.90;;;17.40;77.00;;;;;;5032181;28;20546;-69
2023/05/14 08:09:55;;;;;;;7.88;7.25;;;17.60;75.80;;;;;;5032724;28;20425;-69
2023/05/14 08:12:24;;;;;;;7.20;6.50;;;17.70;74.10;;;;;;5034296;28;20512;-70
2023/05/14 08:14:50;;;;;;;6.90;6.40;;;17.80;73.20;;;;;;5043396;28;20431;-69
2023/05/14 08:17:17;;;;;;;6.60;6.00;;;18.00;72.40;;;;;;5042046;28;20448;-69
2023/05/14 08:19:44;;;;;;;5.82;5.30;;;18.20;71.90;;;;;;5040118;28;20440;-69
2023/05/14 08:22:11;;;;;;;5.30;4.90;;;18.30;68.60;;;;;;5046312;28;20817;-68
2023/05/14 08:24:38;;;;;;;5.20;4.80;;;18.40;67.30;;;;;;5032978;28;20442;-69
2023/05/14 08:27:05;;;;;;;5.00;4.60;;;18.50;65.80;;;;;;5042546;28;20464;-70
2023/05/14 08:29:33;;;;;;;5.68;5.20;;;18.60;65.80;;;;;;5047198;28;20452;-71
2023/05/14 08:32:00;;;;;;;5.20;4.70;;;18.80;64.70;;;;;;5042390;28;20544;-71
2023/05/14 08:34:27;;;;;;;4.70;4.30;;;18.90;62.50;;;;;;5039229;28;20582;-70
2023/05/14 08:36:54;;;;;;;4.70;4.30;;;19.00;60.80;;;;;;5042022;28;20421;-71
2023/05/14 08:39:21;;;;;;;4.50;4.18;;;19.10;59.20;;;;;;5043113;28;20429;-70
2023/05/14 08:41:48;;;;;;;4.88;4.47;;;19.30;59.80;;;;;;5038780;28;20433;-70
2023/05/14 08:44:18;;;;;;;4.60;4.30;;;19.50;59.60;;;;;;5035023;28;20441;-70
2023/05/14 08:46:48;;;;;;;4.18;3.88;;;19.70;58.80;;;;;;5036170;28;20436;-72
2023/05/14 08:49:21;;;;;;;4.10;3.80;;;19.90;58.10;;;;;;5039957;28;20464;-71
2023/05/14 08:51:48;;;;;;;4.80;3.70;;;20.10;57.10;;;;;;5037109;28;20409;-72
2023/05/14 08:54:16;;;;;;;3.90;3.60;;;20.30;55.90;;;;;;5044548;28;20424;-70
2023/05/14 08:56:45;;;;;;;3.90;3.60;;;20.50;53.40;;;;;;5040300;28;20599;-70
2023/05/14 08:59:12;;;;;;;4.00;3.60;;;20.70;53.40;;;;;;5038119;28;20469;-70
2023/05/14 09:01:44;;;;;;;4.20;3.80;;;20.80;53.00;;;;;;5034961;28;20892;-70
2023/05/14 09:04:13;;;;;;;3.63;3.33;;;20.90;52.20;;;;;;5044307;28;20448;-69
2023/05/14 09:06:41;;;;;;;4.10;3.70;;;21.00;51.30;;;;;;5037580;28;20915;-70
2023/05/14 09:09:10;;;;;;;3.85;3.10;;;21.00;52.10;;;;;;5043161;28;20436;-70
2023/05/14 09:11:41;;;;;;;5.30;3.20;;;21.10;51.30;;;;;;5035079;28;20722;-71
2023/05/14 09:14:07;;;;;;;3.08;2.88;;;21.30;50.10;;;;;;5043013;28;20785;-71
2023/05/14 09:16:36;;;;;;;3.50;3.20;;;21.50;49.00;;;;;;5038659;28;20451;-71
2023/05/14 09:19:03;;;;;;;3.20;2.95;;;21.70;48.10;;;;;;5033450;28;20470;-71
2023/05/14 09:21:31;;;;;;;2.72;2.50;;;21.80;47.60;;;;;;5040440;28;20926;-72
2023/05/14 09:23:58;;;;;;;2.80;2.60;;;22.00;46.60;;;;;;5040328;28;20452;-70
2023/05/14 09:26:26;;;;;;;4.20;3.03;;;22.10;46.10;;;;;;5034964;28;20441;-70
2023/05/14 09:28:59;;;;;;;2.90;2.70;;;22.20;46.30;;;;;;5037656;28;20790;-71
2023/05/14 09:31:26;;;;;;;3.00;2.80;;;22.30;46.10;;;;;;5038058;28;20919;-71
2023/05/14 09:33:53;;;;;;;2.72;2.53;;;22.40;45.80;;;;;;5035710;28;20530;-70
2023/05/14 09:36:20;;;;;;;2.70;2.50;;;22.50;44.80;;;;;;5040452;28;20413;-71
2023/05/14 09:38:48;;;;;;;3.40;2.80;;;22.60;44.50;;;;;;5042974;28;20523;-70
2023/05/14 09:41:15;;;;;;;3.17;2.90;;;22.80;42.90;;;;;;5040067;28;20439;-71
2023/05/14 09:43:42;;;;;;;4.90;4.40;;;22.80;43.40;;;;;;5039727;28;20433;-70
2023/05/14 09:46:08;;;;;;;3.80;3.50;;;22.90;41.60;;;;;;5043477;28;20492;-71
2023/05/14 09:48:35;;;;;;;4.03;2.90;;;22.80;43.60;;;;;;5044874;28;20527;-70
2023/05/14 09:51:02;;;;;;;3.33;2.95;;;22.90;43.50;;;;;;5031119;28;20446;-71
2023/05/14 09:53:30;;;;;;;3.50;3.20;;;23.10;42.10;;;;;;5029325;28;20849;-70
2023/05/14 09:55:58;;;;;;;3.00;2.70;;;23.30;40.80;;;;;;5045253;28;20440;-71
2023/05/14 09:58:25;;;;;;;3.10;2.90;;;23.30;41.70;;;;;;5029285;28;20469;-71
2023/05/14 10:00:53;;;;;;;3.30;3.00;;;23.40;41.40;;;;;;5032972;28;20548;-69
2023/05/14 10:03:22;;;;;;;3.38;2.97;;;23.50;41.20;;;;;;5041860;28;20520;-71
2023/05/14 10:05:50;;;;;;;3.20;2.90;;;23.70;41.50;;;;;;5039948;28;20441;-70
2023/05/14 10:08:22;;;;;;;4.00;3.70;;;23.80;41.10;;;;;;5050460;22;20566;-72
2023/05/14 10:10:51;;;;;;;3.05;2.85;;;23.90;41.00;;;;;;5065211;28;20520;-74
2023/05/14 10:13:22;;;;;;;3.00;2.80;;;24.00;40.50;;;;;;5075930;28;20447;-74
2023/05/14 10:15:55;;;;;;;3.30;3.00;;;24.20;40.00;;;;;;5072785;28;20812;-75
2023/05/14 10:18:24;;;;;;;3.35;2.90;;;24.40;38.90;;;;;;5054721;28;20403;-74
2023/05/14 10:20:58;;;;;;;4.90;4.40;;;24.40;38.90;;;;;;5034236;28;20437;-67
2023/05/14 10:23:25;;;;;;;5.20;4.70;;;24.40;41.40;;;;;;5025471;28;20963;-67
2023/05/14 10:25:52;;;;;;;4.20;3.60;;;24.50;41.70;;;;;;5023299;28;20923;-68
2023/05/14 10:28:20;;;;;;;3.58;3.28;;;24.70;38.70;;;;;;5027403;28;20446;-69
2023/05/14 10:30:49;;;;;;;3.80;3.50;;;24.70;38.10;;;;;;5021084;28;20442;-67
2023/05/14 10:33:17;;;;;;;4.10;3.70;;;24.70;40.00;;;;;;5027264;28;20481;-66
2023/05/14 10:35:59;;;;;;;3.78;3.47;;;24.70;39.50;;;;;;5022515;28;20488;-65
2023/05/14 10:38:27;;;;;;;3.70;3.40;;;24.50;39.40;;;;;;5023420;28;20427;-67
2023/05/14 10:41:01;;;;;;;5.00;4.70;;;24.30;40.10;;;;;;5038569;28;20441;-67
2023/05/14 10:43:30;;;;;;;4.53;4.13;;;24.20;42.00;;;;;;5045993;28;20424;-68
2023/05/14 10:45:58;;;;;;;5.10;4.60;;;24.40;42.80;;;;;;5040058;28;20410;-67
2023/05/14 10:48:25;;;;;;;5.07;4.57;;;24.40;42.20;;;;;;5042865;28;20430;-67
2023/05/14 10:50:53;;;;;;;5.00;4.60;;;24.40;43.40;;;;;;5033266;28;20434;-67
2023/05/14 10:53:21;;;;;;;5.07;4.60;;;24.40;41.80;;;;;;5014498;28;20415;-70
2023/05/14 10:55:48;;;;;;;4.80;4.30;;;24.50;44.40;;;;;;5029430;28;20441;-67
2023/05/14 10:58:15;;;;;;;4.65;3.90;;;24.70;44.20;;;;;;5036725;28;20437;-67
2023/05/14 11:00:48;;;;;;;5.00;4.23;;;24.80;43.10;;;;;;5031209;28;20463;-68
2023/05/14 11:03:15;;;;;;;4.38;3.97;;;24.90;42.60;;;;;;5029590;28;20806;-67
2023/05/14 11:05:43;;;;;;;5.53;5.00;;;24.70;40.50;;;;;;5029621;28;20415;-69
2023/05/14 11:08:11;;;;;;;4.70;4.30;;;24.40;40.40;;;;;;5030044;28;20422;-67
2023/05/14 11:10:39;;;;;;;4.82;4.53;;;24.20;42.50;;;;;;5028999;28;20449;-67
2023/05/14 11:13:06;;;;;;;6.32;5.72;;;24.20;39.60;;;;;;5042648;28;20940;-67
2023/05/14 11:15:33;;;;;;;6.82;6.22;;;24.20;40.50;;;;;;5021887;28;20436;-68
2023/05/14 11:18:01;;;;;;;5.80;5.30;;;24.30;39.50;;;;;;5026121;28;20441;-69
2023/05/14 11:20:28;;;;;;;6.80;6.30;;;24.30;42.90;;;;;;5029323;28;20944;-67
2023/05/14 11:22:55;;;;;;;6.25;5.80;;;24.40;41.20;;;;;;5029803;28;20427;-69
2023/05/14 11:25:24;;;;;;;6.25;5.75;;;24.60;41.20;;;;;;5035275;28;20431;-70
2023/05/14 11:27:54;;;;;;;5.60;5.10;;;24.70;40.90;;;;;;5025831;28;20413;-69
2023/05/14 11:30:21;;;;;;;6.38;5.53;;;24.60;41.40;;;;;;5030385;28;20427;-67
2023/05/14 11:32:50;;;;;;;5.28;4.78;;;24.40;40.10;;;;;;5028127;28;20550;-68
2023/05/14 11:35:18;;;;;;;5.38;4.95;;;24.10;42.00;;;;;;5026298;28;20512;-66
2023/05/14 11:37:50;;;;;;;5.57;4.65;;;23.90;42.80;;;;;;5024447;28;20415;-68
2023/05/14 11:40:17;;;;;;;5.78;5.30;;;23.70;41.60;;;;;;5031048;28;20422;-66
2023/05/14 11:42:44;;;;;;;4.97;4.55;;;23.60;40.80;;;;;;5034389;28;20415;-68
2023/05/14 11:45:12;;;;;;;6.32;4.90;;;23.50;42.80;;;;;;5039314;28;20417;-69
2023/05/14 11:47:39;;;;;;;5.63;5.23;;;23.30;42.50;;;;;;5036014;28;20490;-67
2023/05/14 11:50:06;;;;;;;5.50;5.10;;;23.30;41.20;;;;;;5028962;28;20433;-68
2023/05/14 11:52:40;;;;;;;5.47;4.97;;;23.20;42.30;;;;;;5028605;28;20434;-69
2023/05/14 11:55:11;;;;;;;5.60;5.20;;;23.20;42.80;;;;;;5026918;28;20529;-68
2023/05/14 11:57:38;;;;;;;6.53;5.93;;;23.10;42.50;;;;;;5026758;28;20462;-66
2023/05/14 12:00:08;;;;;;;6.40;5.80;;;22.80;41.00;;;;;;5027593;28;20441;-68
2023/05/14 12:02:37;;;;;;;6.40;5.80;;;22.60;42.20;;;;;;5025975;28;20442;-66
2023/05/14 12:05:07;;;;;;;6.70;6.20;;;22.60;43.90;;;;;;5029740;28;20440;-68
2023/05/14 12:07:34;;;;;;;5.63;5.22;;;22.90;43.20;;;;;;5020229;28;20439;-69
2023/05/14 12:10:04;;;;;;;4.75;4.35;;;23.20;45.60;;;;;;5026923;28;20428;-68
2023/05/14 12:12:35;;;;;;;4.40;4.00;;;23.30;43.10;;;;;;5027820;28;21072;-68
2023/05/14 12:15:10;;;;;;;5.57;4.25;;;23.70;42.20;;;;;;5031655;28;20438;-69
2023/05/14 12:17:38;;;;;;;4.93;4.47;;;24.00;42.40;;;;;;5025293;28;20436;-68
2023/05/14 12:20:09;;;;;;;6.18;4.40;;;24.40;42.10;;;;;;5024866;28;20530;-68
2023/05/14 12:22:36;;;;;;;4.43;3.92;;;24.50;43.50;;;;;;5025235;28;20497;-68
2023/05/14 12:25:05;;;;;;;4.20;3.80;;;24.60;40.60;;;;;;5022827;28;20564;-68
2023/05/14 12:27:32;;;;;;;3.80;3.40;;;24.60;39.90;;;;;;5025578;28;20473;-66
2023/05/14 12:30:01;;;;;;;3.95;3.65;;;24.60;38.70;;;;;;5028869;28;20429;-68
2023/05/14 12:32:28;;;;;;;5.00;4.70;;;24.60;38.20;;;;;;5030716;28;20911;-67
2023/05/14 12:34:55;;;;;;;4.90;4.50;;;24.50;38.30;;;;;;5034908;28;20435;-65